sensor_id;sensor_type;location;lat;lon;timestamp;P1;durP1;ratioP1;P2;durP2;ratioP2
70725;SDS011;58304;53.104;6.022;2022-12-18T00:00:58;44.63;;;13.68;;
70725;SDS011;58304;53.104;6.022;2022-12-18T00:03:24;41.85;;;12.30;;
70725;SDS011;58304;53.104;6.022;2022-12-18T00:08:17;36.72;;;11.07;;
70725;SDS011;58304;53.104;6.022;2022-12-18T00:10:43;43.17;;;12.80;;
70725;SDS011;58304;53.104;6.022;2022-12-18T00:13:09;44.33;;;12.27;;
70725;SDS011;58304;53.104;6.022;2022-12-18T00:18:02;42.40;;;12.18;;
70725;SDS011;58304;53.104;6.022;2022-12-18T00:20:28;43.28;;;12.15;;
70725;SDS011;58304;53.104;6.022;2022-12-18T00:22:54;37.13;;;10.30;;
70725;SDS011;58304;53.104;6.022;2022-12-18T00:25:19;43.72;;;11.95;;
70725;SDS011;58304;53.104;6.022;2022-12-18T00:27:45;44.08;;;12.52;;
70725;SDS011;58304;53.104;6.022;2022-12-18T00:30:11;45.08;;;12.43;;
70725;SDS011;58304;53.104;6.022;2022-12-18T00:32:37;48.38;;;12.65;;
70725;SDS011;58304;53.104;6.022;2022-12-18T00:35:03;47.00;;;13.27;;
70725;SDS011;58304;53.104;6.022;2022-12-18T00:37:29;51.38;;;13.60;;
70725;SDS011;58304;53.104;6.022;2022-12-18T00:39:55;41.28;;;11.45;;
70725;SDS011;58304;53.104;6.022;2022-12-18T00:42:20;46.80;;;11.63;;
70725;SDS011;58304;53.104;6.022;2022-12-18T00:45:04;46.63;;;12.05;;
70725;SDS011;58304;53.104;6.022;2022-12-18T00:49:56;50.58;;;13.57;;
70725;SDS011;58304;53.104;6.022;2022-12-18T00:52:22;42.42;;;13.05;;
70725;SDS011;58304;53.104;6.022;2022-12-18T00:54:47;37.60;;;11.77;;
70725;SDS011;58304;53.104;6.022;2022-12-18T00:57:13;46.65;;;12.63;;
70725;SDS011;58304;53.104;6.022;2022-12-18T00:59:38;36.42;;;11.18;;
70725;SDS011;58304;53.104;6.022;2022-12-18T01:02:04;39.15;;;12.15;;
70725;SDS011;58304;53.104;6.022;2022-12-18T01:04:31;45.63;;;12.70;;
70725;SDS011;58304;53.104;6.022;2022-12-18T01:06:58;45.08;;;12.57;;
70725;SDS011;58304;53.104;6.022;2022-12-18T01:09:23;33.03;;;10.73;;
70725;SDS011;58304;53.104;6.022;2022-12-18T01:11:49;41.63;;;11.90;;
70725;SDS011;58304;53.104;6.022;2022-12-18T01:14:14;44.63;;;12.18;;
70725;SDS011;58304;53.104;6.022;2022-12-18T01:16:40;38.67;;;11.23;;
70725;SDS011;58304;53.104;6.022;2022-12-18T01:19:06;38.65;;;11.05;;
70725;SDS011;58304;53.104;6.022;2022-12-18T01:21:31;32.00;;;10.60;;
70725;SDS011;58304;53.104;6.022;2022-12-18T01:23:57;44.75;;;11.60;;
70725;SDS011;58304;53.104;6.022;2022-12-18T01:26:23;36.90;;;11.15;;
70725;SDS011;58304;53.104;6.022;2022-12-18T01:28:49;35.78;;;10.18;;
70725;SDS011;58304;53.104;6.022;2022-12-18T01:31:19;36.13;;;10.00;;
70725;SDS011;58304;53.104;6.022;2022-12-18T01:33:46;30.85;;;9.40;;
70725;SDS011;58304;53.104;6.022;2022-12-18T01:36:19;38.70;;;9.90;;
70725;SDS011;58304;53.104;6.022;2022-12-18T01:38:49;41.30;;;11.73;;
70725;SDS011;58304;53.104;6.022;2022-12-18T01:46:13;29.58;;;8.70;;
70725;SDS011;58304;53.104;6.022;2022-12-18T01:48:39;37.05;;;10.30;;
70725;SDS011;58304;53.104;6.022;2022-12-18T01:51:08;37.05;;;10.75;;
70725;SDS011;58304;53.104;6.022;2022-12-18T01:53:35;35.97;;;9.48;;
70725;SDS011;58304;53.104;6.022;2022-12-18T01:56:03;33.08;;;10.00;;
70725;SDS011;58304;53.104;6.022;2022-12-18T01:58:32;43.50;;;10.10;;
70725;SDS011;58304;53.104;6.022;2022-12-18T02:01:06;30.85;;;8.75;;
70725;SDS011;58304;53.104;6.022;2022-12-18T02:03:32;34.22;;;9.43;;
70725;SDS011;58304;53.104;6.022;2022-12-18T02:11:23;36.80;;;11.30;;
70725;SDS011;58304;53.104;6.022;2022-12-18T02:14:19;34.35;;;9.82;;
70725;SDS011;58304;53.104;6.022;2022-12-18T02:17:07;34.08;;;8.20;;
70725;SDS011;58304;53.104;6.022;2022-12-18T02:19:52;32.03;;;9.48;;
70725;SDS011;58304;53.104;6.022;2022-12-18T02:25:05;34.00;;;10.43;;
70725;SDS011;58304;53.104;6.022;2022-12-18T02:27:54;38.78;;;10.57;;
70725;SDS011;58304;53.104;6.022;2022-12-18T02:30:23;30.73;;;9.27;;
70725;SDS011;58304;53.104;6.022;2022-12-18T02:32:50;32.95;;;10.10;;
70725;SDS011;58304;53.104;6.022;2022-12-18T02:35:24;32.35;;;9.10;;
70725;SDS011;58304;53.104;6.022;2022-12-18T02:37:53;38.67;;;9.85;;
70725;SDS011;58304;53.104;6.022;2022-12-18T02:42:46;33.05;;;9.80;;
70725;SDS011;58304;53.104;6.022;2022-12-18T02:45:12;30.77;;;8.70;;
70725;SDS011;58304;53.104;6.022;2022-12-18T02:47:39;34.55;;;9.60;;
70725;SDS011;58304;53.104;6.022;2022-12-18T02:50:30;33.40;;;9.75;;
70725;SDS011;58304;53.104;6.022;2022-12-18T02:53:07;35.60;;;10.18;;
70725;SDS011;58304;53.104;6.022;2022-12-18T02:55:54;33.80;;;9.88;;
70725;SDS011;58304;53.104;6.022;2022-12-18T03:01:18;31.70;;;9.57;;
70725;SDS011;58304;53.104;6.022;2022-12-18T03:03:55;35.45;;;10.00;;
70725;SDS011;58304;53.104;6.022;2022-12-18T03:06:26;31.20;;;9.27;;
70725;SDS011;58304;53.104;6.022;2022-12-18T03:09:09;30.98;;;8.85;;
70725;SDS011;58304;53.104;6.022;2022-12-18T03:11:59;39.33;;;10.23;;
70725;SDS011;58304;53.104;6.022;2022-12-18T03:14:50;34.78;;;9.63;;
70725;SDS011;58304;53.104;6.022;2022-12-18T03:17:26;38.50;;;10.00;;
70725;SDS011;58304;53.104;6.022;2022-12-18T03:19:56;34.95;;;10.80;;
70725;SDS011;58304;53.104;6.022;2022-12-18T03:22:24;32.05;;;10.23;;
70725;SDS011;58304;53.104;6.022;2022-12-18T03:24:54;29.85;;;9.35;;
70725;SDS011;58304;53.104;6.022;2022-12-18T03:27:22;35.90;;;8.90;;
70725;SDS011;58304;53.104;6.022;2022-12-18T03:29:57;34.80;;;10.15;;
70725;SDS011;58304;53.104;6.022;2022-12-18T03:32:33;40.60;;;10.60;;
70725;SDS011;58304;53.104;6.022;2022-12-18T03:35:05;37.60;;;10.85;;
70725;SDS011;58304;53.104;6.022;2022-12-18T03:37:32;30.23;;;9.93;;
70725;SDS011;58304;53.104;6.022;2022-12-18T03:39:58;36.45;;;10.85;;
70725;SDS011;58304;53.104;6.022;2022-12-18T03:42:33;36.92;;;10.27;;
70725;SDS011;58304;53.104;6.022;2022-12-18T03:45:12;38.45;;;10.38;;
70725;SDS011;58304;53.104;6.022;2022-12-18T03:52:44;36.55;;;10.18;;
70725;SDS011;58304;53.104;6.022;2022-12-18T03:55:32;34.75;;;10.57;;
70725;SDS011;58304;53.104;6.022;2022-12-18T03:57:59;39.63;;;10.77;;
70725;SDS011;58304;53.104;6.022;2022-12-18T04:00:28;38.05;;;10.82;;
70725;SDS011;58304;53.104;6.022;2022-12-18T04:02:55;41.05;;;11.50;;
70725;SDS011;58304;53.104;6.022;2022-12-18T04:05:24;33.80;;;11.27;;
70725;SDS011;58304;53.104;6.022;2022-12-18T04:07:51;32.10;;;10.02;;
70725;SDS011;58304;53.104;6.022;2022-12-18T04:10:19;39.95;;;12.10;;
70725;SDS011;58304;53.104;6.022;2022-12-18T04:12:45;32.35;;;10.10;;
70725;SDS011;58304;53.104;6.022;2022-12-18T04:15:11;31.30;;;9.93;;
70725;SDS011;58304;53.104;6.022;2022-12-18T04:17:38;37.75;;;10.52;;
70725;SDS011;58304;53.104;6.022;2022-12-18T04:20:14;35.47;;;10.68;;
70725;SDS011;58304;53.104;6.022;2022-12-18T04:22:39;31.50;;;8.70;;
70725;SDS011;58304;53.104;6.022;2022-12-18T04:25:05;30.17;;;9.20;;
70725;SDS011;58304;53.104;6.022;2022-12-18T04:27:31;31.80;;;9.30;;
70725;SDS011;58304;53.104;6.022;2022-12-18T04:29:56;33.10;;;9.85;;
70725;SDS011;58304;53.104;6.022;2022-12-18T04:32:22;34.25;;;10.38;;
70725;SDS011;58304;53.104;6.022;2022-12-18T04:34:47;38.58;;;10.77;;
70725;SDS011;58304;53.104;6.022;2022-12-18T04:37:13;34.90;;;9.70;;
70725;SDS011;58304;53.104;6.022;2022-12-18T04:39:39;34.92;;;10.13;;
70725;SDS011;58304;53.104;6.022;2022-12-18T04:42:04;36.92;;;10.90;;
70725;SDS011;58304;53.104;6.022;2022-12-18T04:44:30;34.03;;;9.63;;
70725;SDS011;58304;53.104;6.022;2022-12-18T04:46:56;33.65;;;9.40;;
70725;SDS011;58304;53.104;6.022;2022-12-18T04:49:21;34.35;;;9.35;;
70725;SDS011;58304;53.104;6.022;2022-12-18T04:51:47;32.03;;;10.43;;
70725;SDS011;58304;53.104;6.022;2022-12-18T04:54:12;35.75;;;10.02;;
70725;SDS011;58304;53.104;6.022;2022-12-18T04:56:38;36.10;;;9.40;;
70725;SDS011;58304;53.104;6.022;2022-12-18T04:59:04;34.65;;;9.38;;
70725;SDS011;58304;53.104;6.022;2022-12-18T05:01:30;30.63;;;8.70;;
70725;SDS011;58304;53.104;6.022;2022-12-18T05:03:58;28.63;;;9.73;;
70725;SDS011;58304;53.104;6.022;2022-12-18T05:06:24;29.20;;;8.68;;
70725;SDS011;58304;53.104;6.022;2022-12-18T05:08:50;30.35;;;9.15;;
70725;SDS011;58304;53.104;6.022;2022-12-18T05:11:15;25.30;;;9.02;;
70725;SDS011;58304;53.104;6.022;2022-12-18T05:13:41;32.28;;;10.13;;
70725;SDS011;58304;53.104;6.022;2022-12-18T05:16:08;38.08;;;9.80;;
70725;SDS011;58304;53.104;6.022;2022-12-18T05:18:34;31.73;;;10.68;;
70725;SDS011;58304;53.104;6.022;2022-12-18T05:21:00;25.17;;;8.90;;
70725;SDS011;58304;53.104;6.022;2022-12-18T05:23:26;28.55;;;9.20;;
70725;SDS011;58304;53.104;6.022;2022-12-18T05:28:25;34.10;;;10.68;;
70725;SDS011;58304;53.104;6.022;2022-12-18T05:30:53;34.08;;;8.68;;
70725;SDS011;58304;53.104;6.022;2022-12-18T05:33:21;29.08;;;9.38;;
70725;SDS011;58304;53.104;6.022;2022-12-18T05:35:51;26.00;;;8.45;;
70725;SDS011;58304;53.104;6.022;2022-12-18T05:38:18;26.42;;;7.60;;
70725;SDS011;58304;53.104;6.022;2022-12-18T05:40:44;24.58;;;7.78;;
70725;SDS011;58304;53.104;6.022;2022-12-18T05:43:10;25.67;;;9.13;;
70725;SDS011;58304;53.104;6.022;2022-12-18T05:45:39;23.60;;;7.97;;
70725;SDS011;58304;53.104;6.022;2022-12-18T05:48:05;24.17;;;7.80;;
70725;SDS011;58304;53.104;6.022;2022-12-18T05:53:04;20.40;;;6.65;;
70725;SDS011;58304;53.104;6.022;2022-12-18T05:57:59;19.75;;;7.55;;
70725;SDS011;58304;53.104;6.022;2022-12-18T06:00:25;20.45;;;6.63;;
70725;SDS011;58304;53.104;6.022;2022-12-18T06:02:50;20.02;;;6.53;;
70725;SDS011;58304;53.104;6.022;2022-12-18T06:05:16;19.42;;;6.85;;
70725;SDS011;58304;53.104;6.022;2022-12-18T06:07:42;19.85;;;6.43;;
70725;SDS011;58304;53.104;6.022;2022-12-18T06:10:07;19.15;;;7.35;;
70725;SDS011;58304;53.104;6.022;2022-12-18T06:12:33;21.50;;;8.55;;
70725;SDS011;58304;53.104;6.022;2022-12-18T06:14:59;28.90;;;8.48;;
70725;SDS011;58304;53.104;6.022;2022-12-18T06:17:31;27.58;;;8.13;;
70725;SDS011;58304;53.104;6.022;2022-12-18T06:19:57;26.60;;;8.50;;
70725;SDS011;58304;53.104;6.022;2022-12-18T06:22:23;27.35;;;9.55;;
70725;SDS011;58304;53.104;6.022;2022-12-18T06:24:49;17.90;;;7.55;;
70725;SDS011;58304;53.104;6.022;2022-12-18T06:27:14;27.05;;;8.48;;
70725;SDS011;58304;53.104;6.022;2022-12-18T06:29:40;22.80;;;8.20;;
70725;SDS011;58304;53.104;6.022;2022-12-18T06:32:05;27.75;;;7.97;;
70725;SDS011;58304;53.104;6.022;2022-12-18T06:34:31;25.95;;;8.90;;
70725;SDS011;58304;53.104;6.022;2022-12-18T06:36:58;24.23;;;8.40;;
70725;SDS011;58304;53.104;6.022;2022-12-18T06:39:24;26.38;;;8.10;;
70725;SDS011;58304;53.104;6.022;2022-12-18T06:41:49;27.80;;;8.85;;
70725;SDS011;58304;53.104;6.022;2022-12-18T06:44:15;23.40;;;8.13;;
70725;SDS011;58304;53.104;6.022;2022-12-18T06:46:41;22.20;;;7.60;;
70725;SDS011;58304;53.104;6.022;2022-12-18T06:49:06;20.33;;;7.00;;
70725;SDS011;58304;53.104;6.022;2022-12-18T06:51:34;25.10;;;8.10;;
70725;SDS011;58304;53.104;6.022;2022-12-18T06:54:00;26.33;;;7.97;;
70725;SDS011;58304;53.104;6.022;2022-12-18T06:56:25;30.00;;;8.77;;
70725;SDS011;58304;53.104;6.022;2022-12-18T06:58:51;28.27;;;8.50;;
70725;SDS011;58304;53.104;6.022;2022-12-18T07:01:17;23.60;;;7.80;;
70725;SDS011;58304;53.104;6.022;2022-12-18T07:03:43;22.38;;;7.38;;
70725;SDS011;58304;53.104;6.022;2022-12-18T07:06:16;25.60;;;9.10;;
70725;SDS011;58304;53.104;6.022;2022-12-18T07:08:43;22.85;;;7.50;;
70725;SDS011;58304;53.104;6.022;2022-12-18T07:11:10;22.23;;;6.70;;
70725;SDS011;58304;53.104;6.022;2022-12-18T07:13:36;20.17;;;7.25;;
70725;SDS011;58304;53.104;6.022;2022-12-18T07:16:05;31.63;;;8.95;;
70725;SDS011;58304;53.104;6.022;2022-12-18T07:18:32;23.77;;;8.00;;
70725;SDS011;58304;53.104;6.022;2022-12-18T07:21:02;20.75;;;8.15;;
70725;SDS011;58304;53.104;6.022;2022-12-18T07:23:29;21.20;;;7.88;;
70725;SDS011;58304;53.104;6.022;2022-12-18T07:25:59;28.98;;;8.50;;
70725;SDS011;58304;53.104;6.022;2022-12-18T07:28:33;24.58;;;8.30;;
70725;SDS011;58304;53.104;6.022;2022-12-18T07:31:03;17.75;;;6.85;;
70725;SDS011;58304;53.104;6.022;2022-12-18T07:33:30;32.10;;;8.27;;
70725;SDS011;58304;53.104;6.022;2022-12-18T07:38:24;24.23;;;7.22;;
70725;SDS011;58304;53.104;6.022;2022-12-18T07:40:49;28.40;;;7.82;;
70725;SDS011;58304;53.104;6.022;2022-12-18T07:43:15;21.33;;;8.38;;
70725;SDS011;58304;53.104;6.022;2022-12-18T07:45:41;19.02;;;6.80;;
70725;SDS011;58304;53.104;6.022;2022-12-18T07:48:07;23.05;;;7.38;;
70725;SDS011;58304;53.104;6.022;2022-12-18T07:50:32;25.48;;;7.32;;
70725;SDS011;58304;53.104;6.022;2022-12-18T07:52:58;27.60;;;7.68;;
70725;SDS011;58304;53.104;6.022;2022-12-18T07:55:28;24.02;;;8.10;;
70725;SDS011;58304;53.104;6.022;2022-12-18T07:57:54;19.77;;;8.13;;
70725;SDS011;58304;53.104;6.022;2022-12-18T08:00:20;24.40;;;7.32;;
70725;SDS011;58304;53.104;6.022;2022-12-18T08:02:46;26.63;;;7.93;;
70725;SDS011;58304;53.104;6.022;2022-12-18T08:05:11;20.05;;;7.78;;
70725;SDS011;58304;53.104;6.022;2022-12-18T08:07:38;20.73;;;7.40;;
70725;SDS011;58304;53.104;6.022;2022-12-18T08:10:04;22.02;;;7.90;;
70725;SDS011;58304;53.104;6.022;2022-12-18T08:12:30;21.90;;;9.30;;
70725;SDS011;58304;53.104;6.022;2022-12-18T08:14:56;23.15;;;7.30;;
70725;SDS011;58304;53.104;6.022;2022-12-18T08:17:22;21.20;;;7.22;;
70725;SDS011;58304;53.104;6.022;2022-12-18T08:19:47;19.05;;;7.60;;
70725;SDS011;58304;53.104;6.022;2022-12-18T08:22:13;26.55;;;9.23;;
70725;SDS011;58304;53.104;6.022;2022-12-18T08:24:39;20.80;;;6.95;;
70725;SDS011;58304;53.104;6.022;2022-12-18T08:27:07;24.73;;;7.50;;
70725;SDS011;58304;53.104;6.022;2022-12-18T08:29:32;21.50;;;7.20;;
70725;SDS011;58304;53.104;6.022;2022-12-18T08:31:58;20.35;;;8.02;;
70725;SDS011;58304;53.104;6.022;2022-12-18T08:34:24;23.23;;;7.97;;
70725;SDS011;58304;53.104;6.022;2022-12-18T08:36:51;24.23;;;7.97;;
70725;SDS011;58304;53.104;6.022;2022-12-18T08:39:17;20.52;;;6.93;;
70725;SDS011;58304;53.104;6.022;2022-12-18T08:41:42;19.77;;;6.78;;
70725;SDS011;58304;53.104;6.022;2022-12-18T08:44:28;22.75;;;7.85;;
70725;SDS011;58304;53.104;6.022;2022-12-18T08:47:02;24.15;;;8.02;;
70725;SDS011;58304;53.104;6.022;2022-12-18T08:49:29;21.20;;;7.07;;
70725;SDS011;58304;53.104;6.022;2022-12-18T08:51:55;21.85;;;8.25;;
70725;SDS011;58304;53.104;6.022;2022-12-18T08:54:22;20.50;;;7.70;;
70725;SDS011;58304;53.104;6.022;2022-12-18T08:56:48;18.27;;;7.57;;
70725;SDS011;58304;53.104;6.022;2022-12-18T08:59:15;18.10;;;6.60;;
70725;SDS011;58304;53.104;6.022;2022-12-18T09:01:41;19.33;;;7.53;;
70725;SDS011;58304;53.104;6.022;2022-12-18T09:04:07;17.50;;;6.80;;
70725;SDS011;58304;53.104;6.022;2022-12-18T09:06:34;18.80;;;6.80;;
70725;SDS011;58304;53.104;6.022;2022-12-18T09:08:59;18.60;;;6.18;;
70725;SDS011;58304;53.104;6.022;2022-12-18T09:11:25;17.15;;;7.07;;
70725;SDS011;58304;53.104;6.022;2022-12-18T09:13:52;20.35;;;6.45;;
70725;SDS011;58304;53.104;6.022;2022-12-18T09:16:20;15.32;;;6.82;;
70725;SDS011;58304;53.104;6.022;2022-12-18T09:18:46;18.67;;;6.80;;
70725;SDS011;58304;53.104;6.022;2022-12-18T09:21:14;16.00;;;6.82;;
70725;SDS011;58304;53.104;6.022;2022-12-18T09:23:41;16.35;;;7.07;;
70725;SDS011;58304;53.104;6.022;2022-12-18T09:26:07;20.13;;;6.88;;
70725;SDS011;58304;53.104;6.022;2022-12-18T09:28:33;18.02;;;6.38;;
70725;SDS011;58304;53.104;6.022;2022-12-18T09:30:59;20.05;;;6.43;;
70725;SDS011;58304;53.104;6.022;2022-12-18T09:33:29;19.75;;;7.20;;
70725;SDS011;58304;53.104;6.022;2022-12-18T09:35:55;17.50;;;6.28;;
70725;SDS011;58304;53.104;6.022;2022-12-18T09:38:20;16.80;;;6.82;;
70725;SDS011;58304;53.104;6.022;2022-12-18T09:40:51;20.58;;;7.28;;
70725;SDS011;58304;53.104;6.022;2022-12-18T09:43:22;20.80;;;7.65;;
70725;SDS011;58304;53.104;6.022;2022-12-18T09:46:07;17.48;;;6.55;;
70725;SDS011;58304;53.104;6.022;2022-12-18T09:48:40;16.88;;;6.65;;
70725;SDS011;58304;53.104;6.022;2022-12-18T09:51:12;18.70;;;6.63;;
70725;SDS011;58304;53.104;6.022;2022-12-18T09:53:38;16.88;;;6.68;;
70725;SDS011;58304;53.104;6.022;2022-12-18T09:56:11;16.70;;;6.53;;
70725;SDS011;58304;53.104;6.022;2022-12-18T09:58:48;17.42;;;6.63;;
70725;SDS011;58304;53.104;6.022;2022-12-18T10:01:22;18.02;;;6.95;;
70725;SDS011;58304;53.104;6.022;2022-12-18T10:03:48;15.38;;;6.53;;
70725;SDS011;58304;53.104;6.022;2022-12-18T10:06:21;16.55;;;6.75;;
70725;SDS011;58304;53.104;6.022;2022-12-18T10:14:29;13.35;;;5.53;;
70725;SDS011;58304;53.104;6.022;2022-12-18T10:17:13;15.65;;;5.78;;
70725;SDS011;58304;53.104;6.022;2022-12-18T10:19:48;18.08;;;6.05;;
70725;SDS011;58304;53.104;6.022;2022-12-18T10:22:35;15.48;;;5.82;;
70725;SDS011;58304;53.104;6.022;2022-12-18T10:27:56;15.18;;;5.05;;
70725;SDS011;58304;53.104;6.022;2022-12-18T10:30:25;11.98;;;4.82;;
70725;SDS011;58304;53.104;6.022;2022-12-18T10:32:51;10.88;;;4.45;;
70725;SDS011;58304;53.104;6.022;2022-12-18T10:35:21;11.85;;;4.50;;
70725;SDS011;58304;53.104;6.022;2022-12-18T10:38:01;12.68;;;4.93;;
70725;SDS011;58304;53.104;6.022;2022-12-18T10:40:31;17.80;;;4.97;;
70725;SDS011;58304;53.104;6.022;2022-12-18T10:43:13;14.20;;;5.20;;
70725;SDS011;58304;53.104;6.022;2022-12-18T10:45:40;11.13;;;4.65;;
70725;SDS011;58304;53.104;6.022;2022-12-18T10:48:19;13.35;;;5.50;;
70725;SDS011;58304;53.104;6.022;2022-12-18T10:50:50;12.77;;;5.20;;
70725;SDS011;58304;53.104;6.022;2022-12-18T10:53:19;13.95;;;5.63;;
70725;SDS011;58304;53.104;6.022;2022-12-18T10:55:47;11.68;;;4.78;;
70725;SDS011;58304;53.104;6.022;2022-12-18T11:01:28;11.98;;;4.50;;
70725;SDS011;58304;53.104;6.022;2022-12-18T11:06:16;12.77;;;4.97;;
70725;SDS011;58304;53.104;6.022;2022-12-18T11:09:03;13.15;;;5.40;;
70725;SDS011;58304;53.104;6.022;2022-12-18T11:11:31;12.75;;;4.88;;
70725;SDS011;58304;53.104;6.022;2022-12-18T11:14:04;11.05;;;5.03;;
70725;SDS011;58304;53.104;6.022;2022-12-18T11:16:45;12.30;;;4.45;;
70725;SDS011;58304;53.104;6.022;2022-12-18T11:21:58;13.43;;;4.63;;
70725;SDS011;58304;53.104;6.022;2022-12-18T11:24:32;13.93;;;4.38;;
70725;SDS011;58304;53.104;6.022;2022-12-18T11:27:00;12.98;;;5.03;;
70725;SDS011;58304;53.104;6.022;2022-12-18T11:29:30;14.52;;;5.10;;
70725;SDS011;58304;53.104;6.022;2022-12-18T11:34:58;13.38;;;4.88;;
70725;SDS011;58304;53.104;6.022;2022-12-18T11:37:41;11.70;;;4.78;;
70725;SDS011;58304;53.104;6.022;2022-12-18T11:40:18;14.45;;;5.88;;
70725;SDS011;58304;53.104;6.022;2022-12-18T11:43:05;12.65;;;5.28;;
70725;SDS011;58304;53.104;6.022;2022-12-18T11:45:38;14.32;;;5.45;;
70725;SDS011;58304;53.104;6.022;2022-12-18T11:48:18;13.63;;;4.93;;
70725;SDS011;58304;53.104;6.022;2022-12-18T11:50:50;14.13;;;4.97;;
70725;SDS011;58304;53.104;6.022;2022-12-18T11:53:18;12.55;;;4.90;;
70725;SDS011;58304;53.104;6.022;2022-12-18T11:58:55;13.55;;;5.30;;
70725;SDS011;58304;53.104;6.022;2022-12-18T12:04:20;13.25;;;4.72;;
70725;SDS011;58304;53.104;6.022;2022-12-18T12:12:10;15.15;;;5.53;;
70725;SDS011;58304;53.104;6.022;2022-12-18T12:17:26;10.65;;;4.53;;
70725;SDS011;58304;53.104;6.022;2022-12-18T12:20:22;11.10;;;4.72;;
70725;SDS011;58304;53.104;6.022;2022-12-18T12:26:08;13.55;;;4.97;;
70725;SDS011;58304;53.104;6.022;2022-12-18T12:28:48;9.52;;;3.85;;
70725;SDS011;58304;53.104;6.022;2022-12-18T12:33:49;9.93;;;4.20;;
70725;SDS011;58304;53.104;6.022;2022-12-18T12:36:29;14.05;;;4.65;;
70725;SDS011;58304;53.104;6.022;2022-12-18T12:39:18;12.23;;;5.05;;
70725;SDS011;58304;53.104;6.022;2022-12-18T12:41:47;12.63;;;4.72;;
70725;SDS011;58304;53.104;6.022;2022-12-18T12:44:33;9.25;;;3.78;;
70725;SDS011;58304;53.104;6.022;2022-12-18T12:47:12;8.98;;;4.10;;
70725;SDS011;58304;53.104;6.022;2022-12-18T12:50:01;9.77;;;3.90;;
70725;SDS011;58304;53.104;6.022;2022-12-18T12:55:00;11.68;;;4.20;;
70725;SDS011;58304;53.104;6.022;2022-12-18T13:00:13;8.38;;;3.78;;
70725;SDS011;58304;53.104;6.022;2022-12-18T13:08:03;8.75;;;3.35;;
70725;SDS011;58304;53.104;6.022;2022-12-18T13:18:20;10.50;;;3.42;;
70725;SDS011;58304;53.104;6.022;2022-12-18T13:20:51;8.75;;;3.03;;
70725;SDS011;58304;53.104;6.022;2022-12-18T13:26:28;9.30;;;3.15;;
70725;SDS011;58304;53.104;6.022;2022-12-18T13:36:23;10.45;;;3.47;;
70725;SDS011;58304;53.104;6.022;2022-12-18T13:44:54;7.80;;;2.70;;
70725;SDS011;58304;53.104;6.022;2022-12-18T13:47:36;9.43;;;3.13;;
70725;SDS011;58304;53.104;6.022;2022-12-18T13:50:10;6.53;;;3.03;;
70725;SDS011;58304;53.104;6.022;2022-12-18T13:53:04;6.35;;;2.85;;
70725;SDS011;58304;53.104;6.022;2022-12-18T13:55:30;6.93;;;3.05;;
70725;SDS011;58304;53.104;6.022;2022-12-18T13:58:03;7.88;;;3.13;;
70725;SDS011;58304;53.104;6.022;2022-12-18T14:00:30;6.97;;;2.58;;
70725;SDS011;58304;53.104;6.022;2022-12-18T14:02:57;5.28;;;2.63;;
70725;SDS011;58304;53.104;6.022;2022-12-18T14:05:34;7.20;;;2.88;;
70725;SDS011;58304;53.104;6.022;2022-12-18T14:08:03;6.35;;;2.78;;
70725;SDS011;58304;53.104;6.022;2022-12-18T14:10:31;7.10;;;3.20;;
70725;SDS011;58304;53.104;6.022;2022-12-18T14:15:46;6.88;;;2.55;;
70725;SDS011;58304;53.104;6.022;2022-12-18T14:20:39;8.70;;;3.38;;
70725;SDS011;58304;53.104;6.022;2022-12-18T14:26:28;11.85;;;3.55;;
70725;SDS011;58304;53.104;6.022;2022-12-18T14:28:59;6.65;;;2.90;;
70725;SDS011;58304;53.104;6.022;2022-12-18T14:31:42;7.10;;;2.90;;
70725;SDS011;58304;53.104;6.022;2022-12-18T14:34:09;6.30;;;2.90;;
70725;SDS011;58304;53.104;6.022;2022-12-18T14:36:40;7.70;;;2.85;;
70725;SDS011;58304;53.104;6.022;2022-12-18T14:39:13;7.10;;;3.45;;
70725;SDS011;58304;53.104;6.022;2022-12-18T14:41:42;6.57;;;3.00;;
70725;SDS011;58304;53.104;6.022;2022-12-18T14:44:11;7.38;;;3.00;;
70725;SDS011;58304;53.104;6.022;2022-12-18T14:46:38;8.35;;;2.92;;
70725;SDS011;58304;53.104;6.022;2022-12-18T14:49:29;7.75;;;3.10;;
70725;SDS011;58304;53.104;6.022;2022-12-18T14:51:57;9.88;;;2.97;;
70725;SDS011;58304;53.104;6.022;2022-12-18T14:54:24;7.63;;;3.08;;
70725;SDS011;58304;53.104;6.022;2022-12-18T14:56:56;10.15;;;3.20;;
70725;SDS011;58304;53.104;6.022;2022-12-18T14:59:27;6.88;;;3.20;;
70725;SDS011;58304;53.104;6.022;2022-12-18T15:04:24;8.07;;;3.10;;
70725;SDS011;58304;53.104;6.022;2022-12-18T15:09:38;7.78;;;3.13;;
70725;SDS011;58304;53.104;6.022;2022-12-18T15:12:17;7.65;;;2.70;;
70725;SDS011;58304;53.104;6.022;2022-12-18T15:14:49;6.22;;;2.53;;
70725;SDS011;58304;53.104;6.022;2022-12-18T15:17:19;7.57;;;3.08;;
70725;SDS011;58304;53.104;6.022;2022-12-18T15:19:47;6.65;;;2.95;;
70725;SDS011;58304;53.104;6.022;2022-12-18T15:24:54;9.00;;;3.17;;
70725;SDS011;58304;53.104;6.022;2022-12-18T15:27:31;7.85;;;3.38;;
70725;SDS011;58304;53.104;6.022;2022-12-18T15:30:01;7.28;;;3.05;;
70725;SDS011;58304;53.104;6.022;2022-12-18T15:32:34;10.23;;;3.22;;
70725;SDS011;58304;53.104;6.022;2022-12-18T15:35:23;9.52;;;3.25;;
70725;SDS011;58304;53.104;6.022;2022-12-18T15:37:50;7.57;;;3.03;;
70725;SDS011;58304;53.104;6.022;2022-12-18T15:40:18;7.22;;;3.03;;
70725;SDS011;58304;53.104;6.022;2022-12-18T15:42:45;9.93;;;3.38;;
70725;SDS011;58304;53.104;6.022;2022-12-18T15:45:31;8.38;;;3.42;;
70725;SDS011;58304;53.104;6.022;2022-12-18T15:47:57;9.57;;;3.22;;
70725;SDS011;58304;53.104;6.022;2022-12-18T15:50:22;8.73;;;3.58;;
70725;SDS011;58304;53.104;6.022;2022-12-18T15:52:49;8.35;;;3.45;;
70725;SDS011;58304;53.104;6.022;2022-12-18T15:55:17;9.27;;;3.88;;
70725;SDS011;58304;53.104;6.022;2022-12-18T15:58:04;8.13;;;3.40;;
70725;SDS011;58304;53.104;6.022;2022-12-18T16:00:30;9.05;;;2.88;;
70725;SDS011;58304;53.104;6.022;2022-12-18T16:02:57;7.22;;;3.03;;
70725;SDS011;58304;53.104;6.022;2022-12-18T16:05:23;12.30;;;3.53;;
70725;SDS011;58304;53.104;6.022;2022-12-18T16:07:50;7.18;;;3.28;;
70725;SDS011;58304;53.104;6.022;2022-12-18T16:10:16;7.88;;;3.45;;
70725;SDS011;58304;53.104;6.022;2022-12-18T16:15:10;8.73;;;2.97;;
70725;SDS011;58304;53.104;6.022;2022-12-18T16:17:41;8.68;;;3.53;;
70725;SDS011;58304;53.104;6.022;2022-12-18T16:20:14;11.52;;;3.92;;
70725;SDS011;58304;53.104;6.022;2022-12-18T16:22:42;10.70;;;3.85;;
70725;SDS011;58304;53.104;6.022;2022-12-18T16:25:22;11.75;;;3.22;;
70725;SDS011;58304;53.104;6.022;2022-12-18T16:27:49;7.25;;;2.90;;
70725;SDS011;58304;53.104;6.022;2022-12-18T16:30:20;6.78;;;3.10;;
70725;SDS011;58304;53.104;6.022;2022-12-18T16:32:48;8.15;;;3.45;;
70725;SDS011;58304;53.104;6.022;2022-12-18T16:35:14;8.57;;;3.38;;
70725;SDS011;58304;53.104;6.022;2022-12-18T16:37:40;6.90;;;3.40;;
70725;SDS011;58304;53.104;6.022;2022-12-18T16:40:07;8.40;;;3.75;;
70725;SDS011;58304;53.104;6.022;2022-12-18T16:42:37;10.30;;;3.55;;
70725;SDS011;58304;53.104;6.022;2022-12-18T16:45:05;8.57;;;3.65;;
70725;SDS011;58304;53.104;6.022;2022-12-18T16:47:32;9.57;;;3.90;;
70725;SDS011;58304;53.104;6.022;2022-12-18T16:49:58;9.45;;;3.67;;
70725;SDS011;58304;53.104;6.022;2022-12-18T16:52:23;8.25;;;3.40;;
70725;SDS011;58304;53.104;6.022;2022-12-18T16:54:49;8.88;;;3.85;;
70725;SDS011;58304;53.104;6.022;2022-12-18T16:57:16;8.80;;;2.90;;
70725;SDS011;58304;53.104;6.022;2022-12-18T16:59:43;9.25;;;3.47;;
70725;SDS011;58304;53.104;6.022;2022-12-18T17:02:17;8.60;;;3.55;;